Time;durP1;ratioP1;P1;durP2;ratioP2;P2;SDS_P1;SDS_P2;PMS_P1;PMS_P2;Temp;Humidity;BMP_temperature;BMP_pressure;BME280_temperature;BME280_humidity;BME280_pressure;Samples;Min_cycle;Max_cycle;Signal;HPM_P1;HPM_P2
2024/01/01 00:01:22;;;;;;;5.07;3.03;;;18.30;58.50;;;;;;5037604;28;20030;-69
2024/01/01 00:03:47;;;;;;;5.70;3.20;;;18.30;58.40;;;;;;5038075;28;20025;-69
2024/01/01 00:06:13;;;;;;;4.63;2.92;;;18.30;58.20;;;;;;5035582;28;20115;-68
2024/01/01 00:08:39;;;;;;;5.18;3.20;;;18.30;58.20;;;;;;5033920;28;20380;-69
2024/01/01 00:11:04;;;;;;;5.25;3.08;;;18.30;58.10;;;;;;5037388;28;20380;-69
2024/01/01 00:13:30;;;;;;;5.65;3.00;;;18.30;58.10;;;;;;5033601;28;20029;-70
2024/01/01 00:15:56;;;;;;;6.43;3.17;;;18.30;57.90;;;;;;5038739;28;20421;-70
2024/01/01 00:18:22;;;;;;;5.10;3.03;;;18.30;57.90;;;;;;5037208;28;20022;-69
2024/01/01 00:20:48;;;;;;;4.88;2.97;;;18.30;57.90;;;;;;5038274;28;20384;-68
2024/01/01 00:23:14;;;;;;;3.83;2.60;;;18.30;57.80;;;;;;5036194;28;20117;-70
2024/01/01 00:25:39;;;;;;;4.13;2.67;;;18.30;57.70;;;;;;5037637;28;20481;-69
2024/01/01 00:28:06;;;;;;;4.75;2.90;;;18.30;57.70;;;;;;5036910;28;20090;-70
2024/01/01 00:30:32;;;;;;;6.45;3.22;;;18.30;57.60;;;;;;5038095;28;20091;-69
2024/01/01 00:32:58;;;;;;;4.72;3.10;;;18.30;57.50;;;;;;5036809;28;20029;-65
2024/01/01 00:35:24;;;;;;;6.60;3.33;;;18.30;57.50;;;;;;5036025;28;20079;-65
2024/01/01 00:37:49;;;;;;;4.20;2.55;;;18.30;57.40;;;;;;5037194;28;20027;-64
2024/01/01 00:40:15;;;;;;;4.80;2.80;;;18.30;57.40;;;;;;5038555;28;20021;-63
2024/01/01 00:42:43;;;;;;;4.80;3.13;;;18.30;57.40;;;;;;5036901;28;20060;-69
2024/01/01 00:45:09;;;;;;;4.25;2.78;;;18.30;57.40;;;;;;5033736;28;20088;-69
2024/01/01 00:47:34;;;;;;;4.15;2.67;;;18.30;57.30;;;;;;5036258;28;20489;-70
2024/01/01 00:50:00;;;;;;;4.60;3.00;;;18.30;57.30;;;;;;5035948;28;20083;-69
2024/01/01 00:52:26;;;;;;;4.20;2.30;;;18.30;57.30;;;;;;5039524;28;20459;-70
2024/01/01 00:54:52;;;;;;;4.82;2.78;;;18.30;57.20;;;;;;5043154;28;20082;-69
2024/01/01 00:57:18;;;;;;;3.78;2.47;;;18.30;57.20;;;;;;5041056;28;20029;-70
2024/01/01 00:59:43;;;;;;;4.80;2.63;;;18.30;57.20;;;;;;5038127;28;20037;-69
2024/01/01 01:02:09;;;;;;;4.60;2.88;;;18.20;57.10;;;;;;5042150;28;20025;-64
2024/01/01 01:04:35;;;;;;;4.40;2.58;;;18.30;57.20;;;;;;5042522;28;20049;-64
2024/01/01 01:07:01;;;;;;;4.80;3.10;;;18.30;57.10;;;;;;5040443;28;20112;-64
2024/01/01 01:09:26;;;;;;;4.13;2.55;;;18.30;57.10;;;;;;5041673;28;20420;-67
2024/01/01 01:11:52;;;;;;;3.35;2.25;;;18.20;57.00;;;;;;5041297;28;20080;-64
2024/01/01 01:14:18;;;;;;;4.00;2.42;;;18.30;57.10;;;;;;5037062;28;20025;-65
2024/01/01 01:16:43;;;;;;;4.30;2.50;;;18.20;57.00;;;;;;5040642;28;20053;-65
2024/01/01 01:19:09;;;;;;;4.28;2.60;;;18.20;57.00;;;;;;5040739;28;20113;-64
2024/01/01 01:21:35;;;;;;;3.97;2.83;;;18.20;57.00;;;;;;5041283;28;20068;-64
2024/01/01 01:24:00;;;;;;;4.43;2.40;;;18.20;57.00;;;;;;5039045;28;20032;-64
2024/01/01 01:26:26;;;;;;;3.63;2.25;;;18.20;57.00;;;;;;5039610;28;20035;-65
2024/01/01 01:28:51;;;;;;;4.20;2.47;;;18.20;57.00;;;;;;5036383;28;20410;-64
2024/01/01 01:31:17;;;;;;;4.53;2.60;;;18.30;57.00;;;;;;5037024;28;20036;-64
2024/01/01 01:33:43;;;;;;;4.30;2.75;;;18.20;57.00;;;;;;5041418;28;20052;-64
2024/01/01 01:36:09;;;;;;;3.28;2.22;;;18.30;57.00;;;;;;5038202;28;20032;-64
2024/01/01 01:38:35;;;;;;;3.30;2.33;;;18.30;57.00;;;;;;5037996;28;20500;-63
2024/01/01 01:41:01;;;;;;;4.38;2.50;;;18.20;56.90;;;;;;5040611;28;20560;-69
2024/01/01 01:43:27;;;;;;;3.50;2.10;;;18.20;56.90;;;;;;5039688;28;20036;-69
2024/01/01 01:45:54;;;;;;;3.58;2.22;;;18.30;57.00;;;;;;5039552;28;20029;-70
2024/01/01 01:48:21;;;;;;;3.63;2.50;;;18.20;56.90;;;;;;5040130;28;20065;-70
2024/01/01 01:50:49;;;;;;;3.63;2.30;;;18.20;56.90;;;;;;5038461;28;20782;-70
2024/01/01 01:53:23;;;;;;;4.22;2.67;;;18.20;56.90;;;;;;5039789;28;20034;-64
2024/01/01 01:55:49;;;;;;;3.35;2.15;;;18.20;56.90;;;;;;5039514;28;20472;-64
2024/01/01 01:58:16;;;;;;;5.05;2.30;;;18.20;56.90;;;;;;5039072;28;20026;-64
2024/01/01 02:00:42;;;;;;;4.07;2.50;;;18.20;56.90;;;;;;5036149;28;20029;-64
2024/01/01 02:03:08;;;;;;;3.72;2.17;;;18.20;56.90;;;;;;5037132;28;20090;-64
2024/01/01 02:05:34;;;;;;;3.28;2.30;;;18.20;56.90;;;;;;5041003;28;20021;-64
2024/01/01 02:08:01;;;;;;;3.30;2.00;;;18.20;56.80;;;;;;5039387;28;20021;-65
2024/01/01 02:10:27;;;;;;;3.70;2.20;;;18.20;56.90;;;;;;5039569;28;20393;-64
2024/01/01 02:12:52;;;;;;;3.45;2.30;;;18.20;56.80;;;;;;5039313;28;20033;-69
2024/01/01 02:15:20;;;;;;;3.60;2.22;;;18.20;56.80;;;;;;5036307;28;20048;-69
2024/01/01 02:17:46;;;;;;;3.53;2.60;;;18.20;56.80;;;;;;5038761;28;20044;-69
2024/01/01 02:20:11;;;;;;;3.20;2.10;;;18.20;56.80;;;;;;5039863;28;20021;-69
2024/01/01 02:22:38;;;;;;;3.47;2.13;;;18.20;56.80;;;;;;5039256;28;20047;-69
2024/01/01 02:25:05;;;;;;;3.17;2.10;;;18.20;56.80;;;;;;5036954;28;20029;-69
2024/01/01 02:27:30;;;;;;;3.60;2.20;;;18.20;56.80;;;;;;5036664;28;20037;-69
2024/01/01 02:29:56;;;;;;;3.30;1.90;;;18.20;56.80;;;;;;5036073;28;20040;-69
2024/01/01 02:32:21;;;;;;;4.22;2.53;;;18.20;56.80;;;;;;5039959;28;20040;-69
2024/01/01 02:34:50;;;;;;;3.83;2.20;;;18.20;56.80;;;;;;5039863;28;20456;-69
2024/01/01 02:37:15;;;;;;;3.60;2.30;;;18.20;56.80;;;;;;5039754;28;20124;-69
2024/01/01 02:39:41;;;;;;;3.45;2.20;;;18.20;56.80;;;;;;5040121;28;20100;-70
2024/01/01 02:42:07;;;;;;;3.20;2.08;;;18.20;56.80;;;;;;5038720;28;20041;-69
2024/01/01 02:44:32;;;;;;;3.55;2.10;;;18.20;56.80;;;;;;5036893;28;20516;-69
2024/01/01 02:46:58;;;;;;;3.85;2.00;;;18.20;56.80;;;;;;5039886;28;20041;-69
2024/01/01 02:49:23;;;;;;;3.70;2.20;;;18.20;56.80;;;;;;5038111;28;20029;-69
2024/01/01 02:51:49;;;;;;;3.40;2.20;;;18.20;56.80;;;;;;5039606;28;20040;-69
2024/01/01 02:54:16;;;;;;;3.00;2.00;;;18.20;56.70;;;;;;5039035;28;20037;-69
2024/01/01 02:56:42;;;;;;;4.47;2.10;;;18.20;56.70;;;;;;5039947;28;20112;-69
2024/01/01 02:59:08;;;;;;;3.05;1.90;;;18.20;56.70;;;;;;5038814;28;20096;-69
2024/01/01 03:01:33;;;;;;;3.10;2.00;;;18.20;56.80;;;;;;5035837;28;20030;-64
2024/01/01 03:03:59;;;;;;;3.40;2.03;;;18.20;56.70;;;;;;5039058;28;20110;-65
2024/01/01 03:06:25;;;;;;;3.00;2.00;;;18.20;56.70;;;;;;5038884;28;20437;-64
2024/01/01 03:08:50;;;;;;;2.85;1.85;;;18.20;56.70;;;;;;5039146;28;20025;-63
2024/01/01 03:11:16;;;;;;;2.55;1.75;;;18.20;56.70;;;;;;5037950;28;20051;-64
2024/01/01 03:13:42;;;;;;;3.83;2.22;;;18.20;56.70;;;;;;5036131;28;20060;-64
2024/01/01 03:16:08;;;;;;;3.53;2.00;;;18.20;56.70;;;;;;5035084;28;20045;-65
2024/01/01 03:18:34;;;;;;;3.08;2.00;;;18.20;56.70;;;;;;5039796;28;20108;-66
2024/01/01 03:20:59;;;;;;;3.42;2.22;;;18.20;56.70;;;;;;5036672;28;21089;-65
2024/01/01 03:23:25;;;;;;;3.05;1.98;;;18.20;56.70;;;;;;5038220;28;20037;-65
2024/01/01 03:25:51;;;;;;;3.17;1.88;;;18.20;56.70;;;;;;5038180;28;20359;-65
2024/01/01 03:28:16;;;;;;;3.22;1.92;;;18.20;56.70;;;;;;5032872;28;20023;-63
2024/01/01 03:30:42;;;;;;;3.08;1.95;;;18.20;56.70;;;;;;5035257;28;20547;-64
2024/01/01 03:33:09;;;;;;;2.58;1.75;;;18.20;56.70;;;;;;5037465;28;20444;-64
2024/01/01 03:35:34;;;;;;;3.03;2.10;;;18.20;56.70;;;;;;5037642;28;20154;-64
2024/01/01 03:38:01;;;;;;;3.38;2.00;;;18.20;56.70;;;;;;5034448;28;20116;-65
2024/01/01 03:40:26;;;;;;;3.22;2.13;;;18.20;56.70;;;;;;5039100;28;20040;-63
2024/01/01 03:42:52;;;;;;;2.72;1.70;;;18.20;56.70;;;;;;5037138;28;20029;-63
2024/01/01 03:45:18;;;;;;;2.60;1.70;;;18.20;56.70;;;;;;5035455;28;20032;-64
2024/01/01 03:47:44;;;;;;;2.97;1.83;;;18.20;56.70;;;;;;5039500;28;20044;-65
2024/01/01 03:50:09;;;;;;;3.47;2.08;;;18.20;56.60;;;;;;5035178;28;20432;-63
2024/01/01 03:52:35;;;;;;;2.85;1.80;;;18.20;56.70;;;;;;5036585;28;20417;-64
2024/01/01 03:55:01;;;;;;;2.75;1.80;;;18.20;56.70;;;;;;5038477;28;20496;-63
2024/01/01 03:57:27;;;;;;;2.17;1.48;;;18.20;56.70;;;;;;5038631;28;20768;-64
2024/01/01 03:59:52;;;;;;;3.00;2.00;;;18.20;56.70;;;;;;5038922;28;21061;-65
2024/01/01 04:02:18;;;;;;;3.15;1.80;;;18.20;56.70;;;;;;5036210;28;20026;-70
2024/01/01 04:04:44;;;;;;;2.30;1.60;;;18.20;56.60;;;;;;5039009;28;20115;-70
2024/01/01 04:07:11;;;;;;;3.00;1.80;;;18.20;56.70;;;;;;5039197;28;20024;-70
2024/01/01 04:09:36;;;;;;;2.40;1.60;;;18.20;56.70;;;;;;5037717;28;20037;-69
2024/01/01 04:12:02;;;;;;;3.25;1.95;;;18.20;56.70;;;;;;5037591;28;20029;-65
2024/01/01 04:14:28;;;;;;;3.17;1.85;;;18.20;56.70;;;;;;5039273;28;20504;-63
2024/01/01 04:16:53;;;;;;;3.05;2.05;;;18.20;56.60;;;;;;5036379;28;20029;-64
2024/01/01 04:19:21;;;;;;;2.58;1.73;;;18.20;56.70;;;;;;5038228;28;20431;-63
2024/01/01 04:21:47;;;;;;;2.72;1.77;;;18.20;56.60;;;;;;5037735;28;20426;-64
2024/01/01 04:24:13;;;;;;;2.53;1.58;;;18.10;56.60;;;;;;5038194;28;20104;-63
2024/01/01 04:26:39;;;;;;;2.60;1.77;;;18.20;56.60;;;;;;5039986;28;20124;-63
2024/01/01 04:29:05;;;;;;;2.35;1.67;;;18.20;56.70;;;;;;5041860;28;20108;-63
2024/01/01 04:31:30;;;;;;;3.13;1.52;;;18.10;56.60;;;;;;5038941;28;20029;-66
2024/01/01 04:33:56;;;;;;;2.85;1.80;;;18.20;56.70;;;;;;5041179;28;20029;-65
2024/01/01 04:36:22;;;;;;;3.20;1.83;;;18.10;56.60;;;;;;5040103;28;20093;-66
2024/01/01 04:38:48;;;;;;;2.60;1.77;;;18.20;56.60;;;;;;5038086;28;20111;-65
2024/01/01 04:41:14;;;;;;;2.58;1.90;;;18.10;56.60;;;;;;5040997;28;20488;-65
2024/01/01 04:43:40;;;;;;;2.55;1.60;;;18.10;56.60;;;;;;5042304;28;20132;-64
2024/01/01 04:46:06;;;;;;;2.90;1.60;;;18.20;56.60;;;;;;5038352;28;20036;-65
2024/01/01 04:48:33;;;;;;;2.78;1.70;;;18.10;56.60;;;;;;5043868;28;20123;-65
2024/01/01 04:50:59;;;;;;;2.67;1.60;;;18.20;56.60;;;;;;5055578;28;20031;-64
2024/01/01 04:53:25;;;;;;;2.33;1.40;;;18.10;56.60;;;;;;5040699;28;20025;-64
2024/01/01 04:55:50;;;;;;;2.53;1.58;;;18.10;56.60;;;;;;5039912;28;20381;-65
2024/01/01 04:58:16;;;;;;;2.95;1.67;;;18.20;56.60;;;;;;5041793;28;20029;-65
2024/01/01 05:00:41;;;;;;;2.78;1.60;;;18.10;56.60;;;;;;5039033;28;20418;-64
2024/01/01 05:03:07;;;;;;;2.63;1.58;;;18.20;56.60;;;;;;5042427;28;20088;-65
2024/01/01 05:05:32;;;;;;;2.50;1.50;;;18.10;56.60;;;;;;5038881;28;20033;-64
2024/01/01 05:07:58;;;;;;;2.92;1.67;;;18.10;56.60;;;;;;5042360;28;20029;-65
2024/01/01 05:10:24;;;;;;;2.70;1.83;;;18.10;56.60;;;;;;5037843;28;20090;-64
2024/01/01 05:12:50;;;;;;;2.60;1.58;;;18.10;56.50;;;;;;5039481;28;20124;-64
2024/01/01 05:15:16;;;;;;;2.38;1.48;;;18.10;56.60;;;;;;5038413;28;20393;-65
2024/01/01 05:17:41;;;;;;;2.60;1.60;;;18.10;56.50;;;;;;5041038;28;20096;-65
2024/01/01 05:20:07;;;;;;;2.35;1.48;;;18.10;56.50;;;;;;5039785;28;20401;-65
2024/01/01 05:22:33;;;;;;;2.28;1.50;;;18.10;56.60;;;;;;5039488;28;20053;-66
2024/01/01 05:24:59;;;;;;;2.17;1.50;;;18.10;56.60;;;;;;5041435;28;20049;-65
2024/01/01 05:27:25;;;;;;;2.13;1.33;;;18.10;56.60;;;;;;5040354;28;20029;-64
2024/01/01 05:29:51;;;;;;;2.17;1.38;;;18.10;56.60;;;;;;5040847;28;20055;-65
2024/01/01 05:32:17;;;;;;;2.28;1.52;;;18.10;56.60;;;;;;5039011;28;20053;-64
2024/01/01 05:34:42;;;;;;;2.30;1.40;;;18.10;56.60;;;;;;5038470;28;20033;-65
2024/01/01 05:37:08;;;;;;;2.42;1.40;;;18.10;56.60;;;;;;5039513;28;20126;-65
2024/01/01 05:39:35;;;;;;;2.70;1.50;;;18.10;56.60;;;;;;5038790;28;20032;-64
2024/01/01 05:42:01;;;;;;;1.95;1.30;;;18.10;56.60;;;;;;5038856;28;20032;-65
2024/01/01 05:44:27;;;;;;;2.88;1.75;;;18.10;57.10;;;;;;5039083;28;20025;-65
2024/01/01 05:46:52;;;;;;;1.92;1.38;;;18.10;56.60;;;;;;5039773;28;20725;-64
2024/01/01 05:49:18;;;;;;;2.63;1.63;;;18.10;56.60;;;;;;5040684;28;20037;-64
2024/01/01 05:51:44;;;;;;;2.63;1.60;;;18.10;56.60;;;;;;5040453;28;20037;-64
2024/01/01 05:54:10;;;;;;;2.42;1.30;;;18.10;56.60;;;;;;5040468;28;20536;-64
2024/01/01 05:56:36;;;;;;;2.55;1.52;;;18.10;56.60;;;;;;5041156;28;20136;-64
2024/01/01 05:59:02;;;;;;;2.25;1.50;;;18.10;56.50;;;;;;5038372;28;20132;-64
2024/01/01 06:01:27;;;;;;;2.10;1.42;;;18.10;56.50;;;;;;5038910;28;20147;-64
2024/01/01 06:03:53;;;;;;;2.67;1.73;;;18.10;56.60;;;;;;5039432;28;20026;-66
2024/01/01 06:06:19;;;;;;;2.13;1.30;;;18.10;56.60;;;;;;5036273;28;20497;-65
2024/01/01 06:08:44;;;;;;;2.22;1.40;;;18.10;56.50;;;;;;5039188;28;20034;-65
2024/01/01 06:11:10;;;;;;;2.15;1.50;;;18.10;56.50;;;;;;5038969;28;20110;-64
2024/01/01 06:13:35;;;;;;;1.90;1.30;;;18.10;56.50;;;;;;5040078;28;20033;-64
2024/01/01 06:16:03;;;;;;;1.85;1.27;;;18.10;56.50;;;;;;5036477;28;20026;-66
2024/01/01 06:18:29;;;;;;;2.45;1.38;;;18.10;56.50;;;;;;5038758;28;20362;-64
2024/01/01 06:20:54;;;;;;;2.53;1.30;;;18.10;56.50;;;;;;5037213;28;20098;-69
2024/01/01 06:23:20;;;;;;;2.50;1.48;;;18.10;56.50;;;;;;5039878;28;20025;-64
2024/01/01 06:25:45;;;;;;;2.10;1.35;;;18.10;56.50;;;;;;5038654;28;20056;-65
2024/01/01 06:28:11;;;;;;;2.45;1.35;;;18.10;56.40;;;;;;5039192;28;20025;-63
2024/01/01 06:30:37;;;;;;;2.45;1.40;;;18.10;56.30;;;;;;5039626;28;20082;-65
2024/01/01 06:33:03;;;;;;;2.50;1.42;;;18.10;56.40;;;;;;5036258;28;20025;-64
2024/01/01 06:35:30;;;;;;;1.88;1.30;;;18.10;56.40;;;;;;5038521;28;20075;-64
2024/01/01 06:37:58;;;;;;;1.67;1.27;;;18.10;56.40;;;;;;5040574;28;20024;-65
2024/01/01 06:40:24;;;;;;;2.38;1.50;;;18.10;56.30;;;;;;5040392;28;20021;-63
2024/01/01 06:42:50;;;;;;;1.63;1.17;;;18.10;56.30;;;;;;5039875;28;20032;-63
2024/01/01 06:45:16;;;;;;;1.80;1.23;;;18.10;56.30;;;;;;5038119;28;20434;-65
2024/01/01 06:47:41;;;;;;;2.40;1.42;;;18.10;56.30;;;;;;5037073;28;20493;-62
2024/01/01 06:50:07;;;;;;;2.08;1.30;;;18.10;56.20;;;;;;5039458;28;20029;-64
2024/01/01 06:52:33;;;;;;;2.42;1.30;;;18.10;56.20;;;;;;5036480;28;20086;-71
2024/01/01 06:54:59;;;;;;;2.10;1.20;;;18.00;56.10;;;;;;5039365;28;20029;-70
2024/01/01 06:57:24;;;;;;;1.88;1.20;;;18.00;56.10;;;;;;5039528;28;20029;-70
2024/01/01 06:59:50;;;;;;;1.88;1.25;;;18.00;56.10;;;;;;5039409;28;20036;-70
2024/01/01 07:02:17;;;;;;;2.08;1.30;;;18.10;56.10;;;;;;5035952;28;20041;-69
2024/01/01 07:04:42;;;;;;;2.13;1.30;;;18.10;56.10;;;;;;5039348;28;20039;-70
2024/01/01 07:07:08;;;;;;;1.30;1.00;;;18.00;56.10;;;;;;5038782;28;20139;-70
2024/01/01 07:09:34;;;;;;;1.88;1.20;;;18.00;56.00;;;;;;5038705;28;20026;-69
2024/01/01 07:12:20;;;;;;;1.75;1.05;;;18.00;56.00;;;;;;5036127;28;20029;-69
2024/01/01 07:14:46;;;;;;;1.40;1.10;;;18.00;56.00;;;;;;5039098;28;20033;-70
2024/01/01 07:17:12;;;;;;;1.45;1.00;;;18.10;56.00;;;;;;5035233;28;20104;-70
2024/01/01 07:19:38;;;;;;;1.70;1.10;;;18.00;56.00;;;;;;5035284;28;20121;-70
2024/01/01 07:22:04;;;;;;;1.75;1.20;;;18.00;56.00;;;;;;5039969;28;20520;-69
2024/01/01 07:24:30;;;;;;;1.80;1.30;;;18.00;56.00;;;;;;5038092;28;20021;-70
2024/01/01 07:26:57;;;;;;;1.60;1.20;;;18.00;55.90;;;;;;5036939;28;20631;-69
2024/01/01 07:29:23;;;;;;;1.90;1.23;;;18.00;56.00;;;;;;5038771;28;20069;-69
2024/01/01 07:31:48;;;;;;;1.83;1.20;;;18.00;56.00;;;;;;5035973;28;20094;-63
2024/01/01 07:34:18;;;;;;;1.70;1.20;;;18.00;56.00;;;;;;5039309;28;20077;-64
2024/01/01 07:36:44;;;;;;;1.80;1.10;;;18.00;56.00;;;;;;5037172;28;20100;-63
2024/01/01 07:39:09;;;;;;;1.80;1.15;;;18.00;56.00;;;;;;5035176;28;20119;-64
2024/01/01 07:41:35;;;;;;;1.40;1.02;;;18.00;56.00;;;;;;5035274;28;20028;-68
2024/01/01 07:44:00;;;;;;;1.88;1.20;;;18.00;56.00;;;;;;5038618;28;20026;-69
2024/01/01 07:46:26;;;;;;;1.50;1.00;;;18.00;56.00;;;;;;5036236;28;20079;-68
2024/01/01 07:48:52;;;;;;;1.60;1.00;;;18.00;56.00;;;;;;5036148;28;20048;-68
2024/01/01 07:51:17;;;;;;;1.92;1.10;;;18.00;56.00;;;;;;5037750;28;20136;-68
2024/01/01 07:53:43;;;;;;;1.45;1.00;;;18.00;56.00;;;;;;5037104;28;20029;-69
2024/01/01 07:56:09;;;;;;;1.88;1.20;;;18.00;56.00;;;;;;5037888;28;20108;-68
2024/01/01 07:58:35;;;;;;;1.77;1.27;;;18.00;56.00;;;;;;5038812;28;20013;-68
2024/01/01 08:01:00;;;;;;;1.35;1.00;;;18.00;56.00;;;;;;5037722;28;20512;-65
2024/01/01 08:03:26;;;;;;;1.63;1.10;;;18.00;56.00;;;;;;5036651;28;20048;-64
2024/01/01 08:05:52;;;;;;;1.52;1.10;;;18.00;56.00;;;;;;5038726;28;20040;-64
2024/01/01 08:08:17;;;;;;;2.03;1.30;;;18.00;56.00;;;;;;5035077;28;20033;-65
2024/01/01 08:10:43;;;;;;;1.85;1.20;;;18.00;56.00;;;;;;5036294;28;20029;-65
2024/01/01 08:13:09;;;;;;;1.65;1.10;;;18.00;56.00;;;;;;5036035;28;20032;-65
2024/01/01 08:15:35;;;;;;;1.67;1.10;;;18.00;56.00;;;;;;5037896;28;20029;-65
2024/01/01 08:18:02;;;;;;;1.52;1.00;;;18.00;56.00;;;;;;5034943;28;20386;-64
2024/01/01 08:20:29;;;;;;;1.67;1.10;;;18.00;56.00;;;;;;5037069;28;20039;-64
2024/01/01 08:22:55;;;;;;;1.73;1.13;;;18.00;56.00;;;;;;5037122;28;20024;-65
2024/01/01 08:25:21;;;;;;;1.48;1.02;;;18.00;56.00;;;;;;5038200;28;20100;-65
2024/01/01 08:27:47;;;;;;;1.40;1.00;;;18.00;56.00;;;;;;5038608;28;20437;-65
2024/01/01 08:30:13;;;;;;;1.65;1.10;;;18.00;56.00;;;;;;5037363;28;20481;-63
2024/01/01 08:32:39;;;;;;;1.85;1.20;;;18.00;56.00;;;;;;5036511;28;20037;-64
2024/01/01 08:35:04;;;;;;;1.40;1.00;;;18.00;56.00;;;;;;5038670;28;20045;-64
2024/01/01 08:37:30;;;;;;;1.15;0.90;;;18.00;56.00;;;;;;5036295;28;20045;-65
2024/01/01 08:39:56;;;;;;;1.35;1.02;;;18.00;56.10;;;;;;5036757;28;20091;-64
2024/01/01 08:42:22;;;;;;;1.35;1.00;;;18.00;56.00;;;;;;5037623;28;20025;-69
2024/01/01 08:44:47;;;;;;;1.40;1.00;;;18.00;56.00;;;;;;5037245;28;20101;-68
2024/01/01 08:47:15;;;;;;;1.52;1.08;;;17.90;56.00;;;;;;5032603;28;20120;-69
2024/01/01 08:49:41;;;;;;;1.25;1.00;;;18.00;56.00;;;;;;5037974;28;20048;-69
2024/01/01 08:52:07;;;;;;;1.40;1.00;;;18.00;56.00;;;;;;5037230;28;20146;-64
2024/01/01 08:54:32;;;;;;;1.30;1.00;;;18.00;56.00;;;;;;5036602;28;20021;-63
2024/01/01 08:56:58;;;;;;;1.90;1.00;;;18.00;56.00;;;;;;5036895;28;20029;-63
2024/01/01 08:59:23;;;;;;;1.90;1.10;;;18.00;56.00;;;;;;5036605;28;20457;-64
2024/01/01 09:01:49;;;;;;;1.45;1.15;;;17.90;56.00;;;;;;5035775;28;20025;-64
2024/01/01 09:04:15;;;;;;;1.50;0.90;;;17.90;56.00;;;;;;5037746;28;20574;-64
2024/01/01 09:06:40;;;;;;;1.40;1.00;;;17.90;56.00;;;;;;5037910;28;20025;-65
2024/01/01 09:09:08;;;;;;;0.93;0.77;;;17.90;55.90;;;;;;5035262;28;20025;-63
2024/01/01 09:11:33;;;;;;;1.10;0.80;;;18.00;56.00;;;;;;5037366;28;20025;-68
2024/01/01 09:14:00;;;;;;;1.33;0.90;;;17.90;56.00;;;;;;5040930;28;20091;-68
2024/01/01 09:16:29;;;;;;;1.40;1.00;;;17.90;56.00;;;;;;5040347;28;20044;-69
2024/01/01 09:18:59;;;;;;;;;;;17.90;56.00;;;;;;5053915;28;20029;-69
2024/01/01 09:21:26;;;;;;;1.10;0.90;;;18.00;56.10;;;;;;5040040;28;20306;-69
2024/01/01 09:23:57;;;;;;;1.42;0.93;;;17.90;55.90;;;;;;5039545;28;20061;-68
2024/01/01 09:26:24;;;;;;;1.63;1.10;;;17.90;55.90;;;;;;5040168;28;20800;-69
2024/01/01 09:28:50;;;;;;;1.77;1.00;;;17.90;55.90;;;;;;5056319;28;20535;-68
2024/01/01 09:31:15;;;;;;;1.33;1.00;;;17.90;55.90;;;;;;5041356;28;20052;-70
2024/01/01 09:33:41;;;;;;;1.05;0.85;;;17.90;55.90;;;;;;5038696;28;20118;-68
2024/01/01 09:36:07;;;;;;;1.38;1.00;;;17.90;55.90;;;;;;5040839;28;20021;-68
2024/01/01 09:38:32;;;;;;;1.48;1.00;;;17.90;55.90;;;;;;5038225;28;20022;-69
2024/01/01 09:40:58;;;;;;;1.17;0.90;;;17.90;55.90;;;;;;5040749;28;20442;-69
2024/01/01 09:43:24;;;;;;;1.23;0.93;;;17.90;55.90;;;;;;5041122;28;20029;-70
2024/01/01 09:45:49;;;;;;;1.73;1.02;;;17.90;55.90;;;;;;5040163;28;20032;-70
2024/01/01 09:48:15;;;;;;;1.48;0.90;;;17.90;55.90;;;;;;5038114;28;20034;-70
2024/01/01 09:50:43;;;;;;;0.88;0.70;;;17.90;55.90;;;;;;5038798;28;20397;-69
2024/01/01 09:53:09;;;;;;;1.48;1.10;;;17.90;55.80;;;;;;5040051;28;20030;-70
2024/01/01 09:55:34;;;;;;;1.67;0.90;;;18.00;55.90;;;;;;5039463;28;20025;-69
2024/01/01 09:58:00;;;;;;;1.27;0.90;;;17.90;55.80;;;;;;5038679;28;20032;-69
2024/01/01 10:00:26;;;;;;;0.90;0.80;;;17.90;55.80;;;;;;5039861;28;20065;-69
2024/01/01 10:03:10;;;;;;;1.35;1.00;;;17.90;55.80;;;;;;5038125;28;20032;-69
2024/01/01 10:05:39;;;;;;;1.23;0.88;;;17.90;55.80;;;;;;5039417;28;20028;-69
2024/01/01 10:08:13;;;;;;;1.35;0.85;;;17.90;55.80;;;;;;5039971;28;20021;-70
2024/01/01 10:10:39;;;;;;;1.27;0.80;;;17.90;55.80;;;;;;5039205;28;20021;-68
2024/01/01 10:13:09;;;;;;;1.27;0.80;;;17.90;55.70;;;;;;5040437;28;20029;-70
2024/01/01 10:15:39;;;;;;;1.75;1.13;;;17.90;55.70;;;;;;5039380;28;20017;-69
2024/01/01 10:18:16;;;;;;;1.35;0.82;;;17.90;56.30;;;;;;5035751;28;20029;-70
2024/01/01 10:20:43;;;;;;;1.08;0.85;;;17.90;55.70;;;;;;5038391;28;20359;-71
2024/01/01 10:23:20;;;;;;;1.13;0.88;;;17.90;55.70;;;;;;5038304;28;20037;-70
2024/01/01 10:26:04;;;;;;;1.23;0.90;;;17.90;55.70;;;;;;5039913;28;20072;-70
2024/01/01 10:28:31;;;;;;;0.90;0.70;;;17.90;55.80;;;;;;5039043;28;20025;-70
2024/01/01 10:30:58;;;;;;;1.02;0.90;;;17.90;55.70;;;;;;5039467;28;20064;-70
2024/01/01 10:33:25;;;;;;;0.93;0.73;;;17.90;55.70;;;;;;5035824;28;20116;-70
2024/01/01 10:35:53;;;;;;;1.23;0.85;;;17.90;55.80;;;;;;5038939;28;20026;-70
2024/01/01 10:38:20;;;;;;;1.00;0.80;;;17.90;55.80;;;;;;5038771;28;20109;-69
2024/01/01 10:40:46;;;;;;;0.77;0.70;;;17.90;55.70;;;;;;5037714;28;20087;-71
2024/01/01 10:43:13;;;;;;;1.27;0.70;;;17.90;55.80;;;;;;5038543;28;20046;-71
2024/01/01 10:45:39;;;;;;;1.00;0.70;;;17.90;55.80;;;;;;5038221;28;20508;-71
2024/01/01 10:48:06;;;;;;;1.02;0.73;;;17.90;55.80;;;;;;5036341;28;20021;-70
2024/01/01 10:50:36;;;;;;;0.70;0.68;;;17.90;55.80;;;;;;5035321;28;20516;-71
2024/01/01 10:53:26;;;;;;;;;;;17.90;55.70;;;;;;5039744;28;20073;-71
2024/01/01 10:56:11;;;;;;;0.90;0.70;;;17.90;55.80;;;;;;5039179;28;19909;-70
2024/01/01 10:59:03;;;;;;;0.88;0.80;;;17.90;55.70;;;;;;5038471;28;20477;-71
2024/01/01 11:01:29;;;;;;;1.15;0.80;;;17.90;55.70;;;;;;5028007;28;20551;-71
2024/01/01 11:03:55;;;;;;;1.75;1.00;;;17.90;55.80;;;;;;5036528;28;20029;-72
2024/01/01 11:06:31;;;;;;;1.05;0.80;;;17.90;55.70;;;;;;5038568;28;20583;-69
2024/01/01 11:08:58;;;;;;;0.77;0.70;;;17.90;55.80;;;;;;5036935;28;20025;-70
2024/01/01 11:11:30;;;;;;;0.85;0.70;;;17.90;55.70;;;;;;5038669;28;20089;-69
2024/01/01 11:13:56;;;;;;;0.90;0.70;;;17.90;55.80;;;;;;5037251;28;20017;-70
2024/01/01 11:16:23;;;;;;;1.08;0.85;;;17.90;55.70;;;;;;5038848;28;20375;-70
2024/01/01 11:18:50;;;;;;;0.95;0.70;;;17.90;55.70;;;;;;5035145;28;20104;-70
2024/01/01 11:21:27;;;;;;;1.00;0.70;;;17.90;55.80;;;;;;5053445;28;20120;-71
2024/01/01 11:23:53;;;;;;;0.75;0.70;;;17.90;55.70;;;;;;5037479;28;20048;-70
2024/01/01 11:26:35;;;;;;;1.05;0.80;;;17.80;55.70;;;;;;5039427;28;20029;-70
2024/01/01 11:29:06;;;;;;;0.85;0.70;;;17.90;55.70;;;;;;5037056;28;20032;-70
2024/01/01 11:31:33;;;;;;;1.15;0.80;;;17.90;55.60;;;;;;5036291;28;20582;-69
2024/01/01 11:34:06;;;;;;;0.98;0.80;;;17.90;55.70;;;;;;5036619;28;20037;-70
2024/01/01 11:36:33;;;;;;;1.20;0.80;;;17.90;55.80;;;;;;5037269;28;20450;-70
2024/01/01 11:39:01;;;;;;;1.08;0.70;;;17.90;55.70;;;;;;5034246;28;20017;-72
2024/01/01 11:41:28;;;;;;;0.70;0.70;;;17.80;55.70;;;;;;5037929;28;20029;-64
2024/01/01 11:43:54;;;;;;;1.10;0.90;;;17.80;55.70;;;;;;5037561;28;20021;-65
2024/01/01 11:46:27;;;;;;;0.88;0.80;;;17.90;55.70;;;;;;5039104;28;20396;-64
2024/01/01 11:49:00;;;;;;;1.10;0.80;;;17.90;55.70;;;;;;5035062;28;20100;-64
2024/01/01 11:51:27;;;;;;;0.80;0.70;;;17.90;55.70;;;;;;5037524;28;20110;-65
2024/01/01 11:54:10;;;;;;;0.80;0.70;;;17.90;55.70;;;;;;5036975;28;20099;-64
2024/01/01 11:56:40;;;;;;;0.90;0.73;;;17.90;55.60;;;;;;5038457;28;20083;-64
2024/01/01 11:59:06;;;;;;;1.23;0.80;;;17.90;55.60;;;;;;5038658;28;20025;-64
2024/01/01 12:01:38;;;;;;;0.73;0.60;;;17.90;55.80;;;;;;5037370;28;20112;-63
2024/01/01 12:04:07;;;;;;;0.75;0.70;;;17.90;55.80;;;;;;5035469;28;20499;-63
2024/01/01 12:06:33;;;;;;;0.77;0.70;;;17.90;55.80;;;;;;5038823;28;20112;-64
2024/01/01 12:09:11;;;;;;;1.05;0.70;;;17.90;56.50;;;;;;5037369;28;20063;-63
2024/01/01 12:11:42;;;;;;;0.77;0.70;;;17.90;56.60;;;;;;5036354;28;20029;-65
2024/01/01 12:14:08;;;;;;;1.08;0.82;;;17.90;56.50;;;;;;5037703;28;20066;-64
2024/01/01 12:16:35;;;;;;;1.30;0.80;;;17.90;56.10;;;;;;5037577;28;20028;-65
2024/01/01 12:19:06;;;;;;;0.98;0.80;;;17.90;56.10;;;;;;5036751;28;20054;-65
2024/01/01 12:21:43;;;;;;;1.00;0.80;;;17.90;56.10;;;;;;5038414;28;20021;-63
2024/01/01 12:24:12;;;;;;;1.33;0.73;;;17.90;56.00;;;;;;5037405;28;20037;-64
2024/01/01 12:26:38;;;;;;;1.08;0.70;;;17.90;56.00;;;;;;5031675;28;20029;-64
2024/01/01 12:29:09;;;;;;;0.90;0.70;;;17.90;55.90;;;;;;5037030;28;20187;-63
2024/01/01 12:31:36;;;;;;;1.05;0.70;;;17.90;55.90;;;;;;5036915;28;20112;-63
2024/01/01 12:34:01;;;;;;;1.48;0.70;;;17.90;55.90;;;;;;5034753;28;20033;-64
2024/01/01 12:36:27;;;;;;;1.10;0.70;;;17.90;55.90;;;;;;5036963;28;20018;-62
2024/01/01 12:38:53;;;;;;;0.95;0.70;;;17.90;55.90;;;;;;5050419;28;20359;-65
2024/01/01 12:41:20;;;;;;;0.60;0.60;;;17.90;55.90;;;;;;5035348;28;20176;-63
2024/01/01 12:43:46;;;;;;;0.60;0.60;;;17.90;55.90;;;;;;5036960;28;20017;-63
2024/01/01 12:46:13;;;;;;;1.20;0.88;;;18.00;56.10;;;;;;5037805;28;20043;-63